sensor_id;sensor_type;location;lat;lon;timestamp;temperature;humidity
65637;DHT22;52327;42.622;23.316;2024-01-30T00:01:50;0.00;67.25
65637;DHT22;52327;42.622;23.316;2024-01-30T00:04:19;-0.06;66.55
65637;DHT22;52327;42.622;23.316;2024-01-30T00:06:45;-0.11;66.87
65637;DHT22;52327;42.622;23.316;2024-01-30T00:09:10;-0.34;67.47
65637;DHT22;52327;42.622;23.316;2024-01-30T00:11:38;-0.28;67.48
65637;DHT22;52327;42.622;23.316;2024-01-30T00:14:04;-0.27;67.52
65637;DHT22;52327;42.622;23.316;2024-01-30T00:16:30;-0.11;68.73
65637;DHT22;52327;42.622;23.316;2024-01-30T00:18:55;0.06;67.13
65637;DHT22;52327;42.622;23.316;2024-01-30T00:21:21;0.02;66.87
65637;DHT22;52327;42.622;23.316;2024-01-30T00:23:47;0.03;66.79
65637;DHT22;52327;42.622;23.316;2024-01-30T00:26:13;0.09;66.63
65637;DHT22;52327;42.622;23.316;2024-01-30T00:28:40;0.06;67.74
65637;DHT22;52327;42.622;23.316;2024-01-30T00:31:06;0.03;67.93
65637;DHT22;52327;42.622;23.316;2024-01-30T00:33:31;0.04;68.43
65637;DHT22;52327;42.622;23.316;2024-01-30T00:35:57;0.11;68.37
65637;DHT22;52327;42.622;23.316;2024-01-30T00:38:22;0.03;69.14
65637;DHT22;52327;42.622;23.316;2024-01-30T00:40:48;0.11;69.68
65637;DHT22;52327;42.622;23.316;2024-01-30T00:43:14;0.17;69.91
65637;DHT22;52327;42.622;23.316;2024-01-30T00:45:40;0.20;70.05
65637;DHT22;52327;42.622;23.316;2024-01-30T00:48:06;0.21;70.37
65637;DHT22;52327;42.622;23.316;2024-01-30T00:50:31;0.24;69.24
65637;DHT22;52327;42.622;23.316;2024-01-30T00:52:56;0.16;68.59
65637;DHT22;52327;42.622;23.316;2024-01-30T00:55:22;0.16;68.34
65637;DHT22;52327;42.622;23.316;2024-01-30T00:57:47;0.16;68.72
65637;DHT22;52327;42.622;23.316;2024-01-30T01:00:13;0.20;69.71
65637;DHT22;52327;42.622;23.316;2024-01-30T01:02:42;0.24;69.83
65637;DHT22;52327;42.622;23.316;2024-01-30T01:05:08;0.25;70.07
65637;DHT22;52327;42.622;23.316;2024-01-30T01:07:34;0.23;70.06
65637;DHT22;52327;42.622;23.316;2024-01-30T01:09:59;0.21;69.57
65637;DHT22;52327;42.622;23.316;2024-01-30T01:12:25;0.23;69.83
65637;DHT22;52327;42.622;23.316;2024-01-30T01:14:50;0.17;70.33
65637;DHT22;52327;42.622;23.316;2024-01-30T01:17:16;0.17;69.96
65637;DHT22;52327;42.622;23.316;2024-01-30T01:19:44;0.06;70.24
65637;DHT22;52327;42.622;23.316;2024-01-30T01:22:10;0.00;71.00
65637;DHT22;52327;42.622;23.316;2024-01-30T01:24:36;-0.01;71.09
65637;DHT22;52327;42.622;23.316;2024-01-30T01:27:01;-0.03;71.27
65637;DHT22;52327;42.622;23.316;2024-01-30T01:29:26;-0.07;71.34
65637;DHT22;52327;42.622;23.316;2024-01-30T01:31:55;-0.17;69.32
65637;DHT22;52327;42.622;23.316;2024-01-30T01:34:21;-0.22;69.79
65637;DHT22;52327;42.622;23.316;2024-01-30T01:36:49;-0.27;70.10
65637;DHT22;52327;42.622;23.316;2024-01-30T01:39:15;-0.28;69.07
65637;DHT22;52327;42.622;23.316;2024-01-30T01:41:41;-0.35;68.87
65637;DHT22;52327;42.622;23.316;2024-01-30T01:44:07;-0.45;67.82
65637;DHT22;52327;42.622;23.316;2024-01-30T01:46:34;-0.55;67.64
65637;DHT22;52327;42.622;23.316;2024-01-30T01:49:02;-0.52;68.80
65637;DHT22;52327;42.622;23.316;2024-01-30T01:51:29;-0.41;70.14
65637;DHT22;52327;42.622;23.316;2024-01-30T01:54:02;-0.31;70.69
65637;DHT22;52327;42.622;23.316;2024-01-30T01:56:29;-0.21;70.04
65637;DHT22;52327;42.622;23.316;2024-01-30T01:58:55;-0.06;69.78
65637;DHT22;52327;42.622;23.316;2024-01-30T02:01:23;0.04;68.40
65637;DHT22;52327;42.622;23.316;2024-01-30T02:03:49;0.10;67.16
65637;DHT22;52327;42.622;23.316;2024-01-30T02:06:14;-0.04;65.85
65637;DHT22;52327;42.622;23.316;2024-01-30T02:08:41;-0.03;68.19
65637;DHT22;52327;42.622;23.316;2024-01-30T02:11:07;0.07;68.88
65637;DHT22;52327;42.622;23.316;2024-01-30T02:13:32;0.11;69.40
65637;DHT22;52327;42.622;23.316;2024-01-30T02:15:58;0.23;68.75
65637;DHT22;52327;42.622;23.316;2024-01-30T02:18:23;0.28;69.29
65637;DHT22;52327;42.622;23.316;2024-01-30T02:20:50;0.27;69.10
65637;DHT22;52327;42.622;23.316;2024-01-30T02:23:19;0.28;69.71
65637;DHT22;52327;42.622;23.316;2024-01-30T02:25:44;0.27;69.10
65637;DHT22;52327;42.622;23.316;2024-01-30T02:28:13;0.25;68.85
65637;DHT22;52327;42.622;23.316;2024-01-30T02:30:39;0.28;69.25
65637;DHT22;52327;42.622;23.316;2024-01-30T02:33:05;0.27;69.11
65637;DHT22;52327;42.622;23.316;2024-01-30T02:35:30;0.28;69.58
65637;DHT22;52327;42.622;23.316;2024-01-30T02:37:56;0.25;69.37
65637;DHT22;52327;42.622;23.316;2024-01-30T02:40:21;0.31;69.38
65637;DHT22;52327;42.622;23.316;2024-01-30T02:42:47;0.30;69.43
65637;DHT22;52327;42.622;23.316;2024-01-30T02:45:12;0.36;69.34
65637;DHT22;52327;42.622;23.316;2024-01-30T02:47:38;0.38;69.26
65637;DHT22;52327;42.622;23.316;2024-01-30T02:50:04;0.43;68.94
65637;DHT22;52327;42.622;23.316;2024-01-30T02:52:30;0.48;69.37
65637;DHT22;52327;42.622;23.316;2024-01-30T02:54:56;0.48;68.98
65637;DHT22;52327;42.622;23.316;2024-01-30T02:57:21;0.44;69.10
65637;DHT22;52327;42.622;23.316;2024-01-30T02:59:46;0.44;67.88
65637;DHT22;52327;42.622;23.316;2024-01-30T03:02:12;0.45;68.95
65637;DHT22;52327;42.622;23.316;2024-01-30T03:04:42;0.44;68.51
65637;DHT22;52327;42.622;23.316;2024-01-30T03:07:08;0.41;66.77
65637;DHT22;52327;42.622;23.316;2024-01-30T03:09:33;0.45;68.45
65637;DHT22;52327;42.622;23.316;2024-01-30T03:11:59;0.44;68.55
65637;DHT22;52327;42.622;23.316;2024-01-30T03:14:24;0.44;68.88
65637;DHT22;52327;42.622;23.316;2024-01-30T03:16:50;0.53;69.17
65637;DHT22;52327;42.622;23.316;2024-01-30T03:19:15;0.53;68.90
65637;DHT22;52327;42.622;23.316;2024-01-30T03:21:40;0.50;68.69
65637;DHT22;52327;42.622;23.316;2024-01-30T03:24:06;0.51;68.99
65637;DHT22;52327;42.622;23.316;2024-01-30T03:26:32;0.51;68.82
65637;DHT22;52327;42.622;23.316;2024-01-30T03:28:57;0.47;68.48
65637;DHT22;52327;42.622;23.316;2024-01-30T03:31:22;0.58;68.35
65637;DHT22;52327;42.622;23.316;2024-01-30T03:33:48;0.51;67.95
65637;DHT22;52327;42.622;23.316;2024-01-30T03:36:15;0.53;65.82
65637;DHT22;52327;42.622;23.316;2024-01-30T03:38:40;0.53;67.46
65637;DHT22;52327;42.622;23.316;2024-01-30T03:41:08;0.53;67.16
65637;DHT22;52327;42.622;23.316;2024-01-30T03:43:34;0.53;67.15
65637;DHT22;52327;42.622;23.316;2024-01-30T03:46:01;0.53;67.80
65637;DHT22;52327;42.622;23.316;2024-01-30T03:48:27;0.60;68.01
65637;DHT22;52327;42.622;23.316;2024-01-30T03:50:52;0.58;68.57
65637;DHT22;52327;42.622;23.316;2024-01-30T03:53:17;0.57;67.74
65637;DHT22;52327;42.622;23.316;2024-01-30T03:55:43;0.51;67.01
65637;DHT22;52327;42.622;23.316;2024-01-30T03:58:08;0.51;67.41
65637;DHT22;52327;42.622;23.316;2024-01-30T04:00:34;0.50;67.05
65637;DHT22;52327;42.622;23.316;2024-01-30T04:02:59;0.50;67.82
65637;DHT22;52327;42.622;23.316;2024-01-30T04:05:24;0.48;67.39
65637;DHT22;52327;42.622;23.316;2024-01-30T04:07:50;0.53;67.65
65637;DHT22;52327;42.622;23.316;2024-01-30T04:10:16;0.50;67.06
65637;DHT22;52327;42.622;23.316;2024-01-30T04:12:41;0.50;66.11
65637;DHT22;52327;42.622;23.316;2024-01-30T04:15:07;0.50;64.98
65637;DHT22;52327;42.622;23.316;2024-01-30T04:17:33;0.50;66.25
65637;DHT22;52327;42.622;23.316;2024-01-30T04:19:58;0.50;66.16
65637;DHT22;52327;42.622;23.316;2024-01-30T04:22:24;0.48;66.30
65637;DHT22;52327;42.622;23.316;2024-01-30T04:24:49;0.50;65.78
65637;DHT22;52327;42.622;23.316;2024-01-30T04:27:14;0.47;64.22
65637;DHT22;52327;42.622;23.316;2024-01-30T04:29:40;0.43;64.59
65637;DHT22;52327;42.622;23.316;2024-01-30T04:32:06;0.45;65.00
65637;DHT22;52327;42.622;23.316;2024-01-30T04:34:31;0.41;65.43
65637;DHT22;52327;42.622;23.316;2024-01-30T04:36:56;0.34;65.49
65637;DHT22;52327;42.622;23.316;2024-01-30T04:39:22;0.33;65.87
65637;DHT22;52327;42.622;23.316;2024-01-30T04:41:47;0.30;63.67
65637;DHT22;52327;42.622;23.316;2024-01-30T04:44:13;0.30;64.45
65637;DHT22;52327;42.622;23.316;2024-01-30T04:46:39;0.23;63.44
65637;DHT22;52327;42.622;23.316;2024-01-30T04:49:04;0.24;65.06
65637;DHT22;52327;42.622;23.316;2024-01-30T04:51:30;0.21;65.33
65637;DHT22;52327;42.622;23.316;2024-01-30T04:53:57;0.25;61.51
65637;DHT22;52327;42.622;23.316;2024-01-30T04:56:22;0.09;61.38
65637;DHT22;52327;42.622;23.316;2024-01-30T04:58:47;0.04;63.70
65637;DHT22;52327;42.622;23.316;2024-01-30T05:01:17;0.04;63.29
65637;DHT22;52327;42.622;23.316;2024-01-30T05:03:42;0.00;64.87
65637;DHT22;52327;42.622;23.316;2024-01-30T05:06:08;0.03;62.19
65637;DHT22;52327;42.622;23.316;2024-01-30T05:08:33;0.03;64.10
65637;DHT22;52327;42.622;23.316;2024-01-30T05:11:02;-0.04;64.26
65637;DHT22;52327;42.622;23.316;2024-01-30T05:13:31;-0.10;63.16
65637;DHT22;52327;42.622;23.316;2024-01-30T05:15:56;-0.13;65.09
65637;DHT22;52327;42.622;23.316;2024-01-30T05:18:21;-0.15;65.57
65637;DHT22;52327;42.622;23.316;2024-01-30T05:20:47;-0.15;65.94
65637;DHT22;52327;42.622;23.316;2024-01-30T05:23:12;-0.19;63.30
65637;DHT22;52327;42.622;23.316;2024-01-30T05:25:38;-0.19;65.38
65637;DHT22;52327;42.622;23.316;2024-01-30T05:28:03;-0.17;66.02
65637;DHT22;52327;42.622;23.316;2024-01-30T05:30:29;-0.19;64.19
65637;DHT22;52327;42.622;23.316;2024-01-30T05:32:54;-0.37;61.82
65637;DHT22;52327;42.622;23.316;2024-01-30T05:35:19;-0.49;62.88
65637;DHT22;52327;42.622;23.316;2024-01-30T05:37:48;-0.65;63.74
65637;DHT22;52327;42.622;23.316;2024-01-30T05:40:14;-0.62;65.99
65637;DHT22;52327;42.622;23.316;2024-01-30T05:42:39;-0.73;64.02
65637;DHT22;52327;42.622;23.316;2024-01-30T05:45:05;-0.64;66.80
65637;DHT22;52327;42.622;23.316;2024-01-30T05:47:30;-0.75;64.17
65637;DHT22;52327;42.622;23.316;2024-01-30T05:49:56;-0.65;66.32
65637;DHT22;52327;42.622;23.316;2024-01-30T05:52:21;-0.54;66.96
65637;DHT22;52327;42.622;23.316;2024-01-30T05:54:47;-0.45;67.53
65637;DHT22;52327;42.622;23.316;2024-01-30T05:57:12;-0.41;67.78
65637;DHT22;52327;42.622;23.316;2024-01-30T05:59:38;-0.35;67.87
65637;DHT22;52327;42.622;23.316;2024-01-30T06:02:03;-0.31;68.43
65637;DHT22;52327;42.622;23.316;2024-01-30T06:04:28;-0.29;68.58
65637;DHT22;52327;42.622;23.316;2024-01-30T06:06:54;-0.27;68.02
65637;DHT22;52327;42.622;23.316;2024-01-30T06:09:19;-0.24;68.69
65637;DHT22;52327;42.622;23.316;2024-01-30T06:11:45;-0.24;68.65
65637;DHT22;52327;42.622;23.316;2024-01-30T06:14:10;-0.25;68.14
65637;DHT22;52327;42.622;23.316;2024-01-30T06:16:36;-0.27;68.29
65637;DHT22;52327;42.622;23.316;2024-01-30T06:19:01;-0.28;68.07
65637;DHT22;52327;42.622;23.316;2024-01-30T06:21:26;-0.27;67.78
65637;DHT22;52327;42.622;23.316;2024-01-30T06:23:52;-0.22;67.22
65637;DHT22;52327;42.622;23.316;2024-01-30T06:26:17;-0.21;68.20
65637;DHT22;52327;42.622;23.316;2024-01-30T06:28:42;-0.19;65.36
65637;DHT22;52327;42.622;23.316;2024-01-30T06:31:09;-0.19;65.43
65637;DHT22;52327;42.622;23.316;2024-01-30T06:33:34;-0.17;65.98
65637;DHT22;52327;42.622;23.316;2024-01-30T06:36:00;-0.15;66.78
65637;DHT22;52327;42.622;23.316;2024-01-30T06:38:25;-0.08;65.01
65637;DHT22;52327;42.622;23.316;2024-01-30T06:40:51;-0.13;64.44
65637;DHT22;52327;42.622;23.316;2024-01-30T06:43:16;-0.10;64.03
65637;DHT22;52327;42.622;23.316;2024-01-30T06:45:42;-0.08;63.33
65637;DHT22;52327;42.622;23.316;2024-01-30T06:48:08;-0.01;62.55
65637;DHT22;52327;42.622;23.316;2024-01-30T06:50:33;0.02;63.80
65637;DHT22;52327;42.622;23.316;2024-01-30T06:52:59;0.04;64.24
65637;DHT22;52327;42.622;23.316;2024-01-30T06:55:24;0.11;63.47
65637;DHT22;52327;42.622;23.316;2024-01-30T06:57:49;0.16;64.90
65637;DHT22;52327;42.622;23.316;2024-01-30T07:00:15;0.18;63.17
65637;DHT22;52327;42.622;23.316;2024-01-30T07:02:47;0.24;63.86
65637;DHT22;52327;42.622;23.316;2024-01-30T07:05:12;0.25;62.94
65637;DHT22;52327;42.622;23.316;2024-01-30T07:07:38;0.27;63.48
65637;DHT22;52327;42.622;23.316;2024-01-30T07:10:04;0.33;61.21
65637;DHT22;52327;42.622;23.316;2024-01-30T07:12:30;0.30;61.55
65637;DHT22;52327;42.622;23.316;2024-01-30T07:14:56;0.25;61.49
65637;DHT22;52327;42.622;23.316;2024-01-30T07:17:21;0.30;61.19
65637;DHT22;52327;42.622;23.316;2024-01-30T07:19:47;0.33;59.98
65637;DHT22;52327;42.622;23.316;2024-01-30T07:24:56;0.30;59.76
65637;DHT22;52327;42.622;23.316;2024-01-30T07:27:21;0.37;61.53
65637;DHT22;52327;42.622;23.316;2024-01-30T07:29:47;0.43;61.61
65637;DHT22;52327;42.622;23.316;2024-01-30T07:32:12;0.48;62.23
65637;DHT22;52327;42.622;23.316;2024-01-30T07:34:38;0.41;60.30
65637;DHT22;52327;42.622;23.316;2024-01-30T07:37:03;0.43;59.93
65637;DHT22;52327;42.622;23.316;2024-01-30T07:39:28;0.47;60.85
65637;DHT22;52327;42.622;23.316;2024-01-30T07:41:54;0.53;60.59
65637;DHT22;52327;42.622;23.316;2024-01-30T07:44:20;0.64;59.05
65637;DHT22;52327;42.622;23.316;2024-01-30T07:46:46;0.65;60.47
65637;DHT22;52327;42.622;23.316;2024-01-30T07:49:11;0.67;59.78
65637;DHT22;52327;42.622;23.316;2024-01-30T07:51:37;0.65;59.64
65637;DHT22;52327;42.622;23.316;2024-01-30T07:54:02;0.71;59.04
65637;DHT22;52327;42.622;23.316;2024-01-30T07:56:27;0.74;59.84
65637;DHT22;52327;42.622;23.316;2024-01-30T07:58:53;0.74;60.06
65637;DHT22;52327;42.622;23.316;2024-01-30T08:01:18;0.81;60.31
65637;DHT22;52327;42.622;23.316;2024-01-30T08:03:44;0.79;58.68
65637;DHT22;52327;42.622;23.316;2024-01-30T08:06:09;0.81;60.15
65637;DHT22;52327;42.622;23.316;2024-01-30T08:08:38;0.86;59.83
65637;DHT22;52327;42.622;23.316;2024-01-30T08:11:03;0.89;60.12
65637;DHT22;52327;42.622;23.316;2024-01-30T08:13:29;0.96;58.66
65637;DHT22;52327;42.622;23.316;2024-01-30T08:15:56;0.98;59.55
65637;DHT22;52327;42.622;23.316;2024-01-30T08:18:22;1.08;58.86
65637;DHT22;52327;42.622;23.316;2024-01-30T08:20:47;1.09;58.84
65637;DHT22;52327;42.622;23.316;2024-01-30T08:23:14;1.15;58.58
65637;DHT22;52327;42.622;23.316;2024-01-30T08:25:39;1.13;59.47
65637;DHT22;52327;42.622;23.316;2024-01-30T08:28:05;1.06;57.71
65637;DHT22;52327;42.622;23.316;2024-01-30T08:30:30;1.09;58.15
65637;DHT22;52327;42.622;23.316;2024-01-30T08:32:56;1.17;58.89
65637;DHT22;52327;42.622;23.316;2024-01-30T08:35:21;1.23;59.43
65637;DHT22;52327;42.622;23.316;2024-01-30T08:37:46;1.32;57.40
65637;DHT22;52327;42.622;23.316;2024-01-30T08:40:12;1.35;58.28
65637;DHT22;52327;42.622;23.316;2024-01-30T08:42:37;1.29;57.23
65637;DHT22;52327;42.622;23.316;2024-01-30T08:45:03;1.27;57.17
65637;DHT22;52327;42.622;23.316;2024-01-30T08:47:30;1.37;58.29
65637;DHT22;52327;42.622;23.316;2024-01-30T08:49:55;1.47;56.62
65637;DHT22;52327;42.622;23.316;2024-01-30T08:52:20;1.63;55.42
65637;DHT22;52327;42.622;23.316;2024-01-30T08:54:46;1.61;56.08
65637;DHT22;52327;42.622;23.316;2024-01-30T08:57:11;1.68;55.62
65637;DHT22;52327;42.622;23.316;2024-01-30T08:59:37;1.74;56.83
65637;DHT22;52327;42.622;23.316;2024-01-30T09:02:02;1.90;55.60
65637;DHT22;52327;42.622;23.316;2024-01-30T09:04:28;1.78;56.58
65637;DHT22;52327;42.622;23.316;2024-01-30T09:06:54;1.75;57.33
65637;DHT22;52327;42.622;23.316;2024-01-30T09:09:20;1.78;56.91
65637;DHT22;52327;42.622;23.316;2024-01-30T09:11:45;1.82;56.15
65637;DHT22;52327;42.622;23.316;2024-01-30T09:14:11;2.09;55.90
65637;DHT22;52327;42.622;23.316;2024-01-30T09:16:37;2.18;54.65
65637;DHT22;52327;42.622;23.316;2024-01-30T09:19:02;2.33;53.86
65637;DHT22;52327;42.622;23.316;2024-01-30T09:21:28;2.35;55.35
65637;DHT22;52327;42.622;23.316;2024-01-30T09:23:54;2.09;55.12
65637;DHT22;52327;42.622;23.316;2024-01-30T09:26:20;2.01;55.52
65637;DHT22;52327;42.622;23.316;2024-01-30T09:28:45;2.02;54.90
65637;DHT22;52327;42.622;23.316;2024-01-30T09:31:11;1.93;56.45
65637;DHT22;52327;42.622;23.316;2024-01-30T09:33:38;1.93;55.30
65637;DHT22;52327;42.622;23.316;2024-01-30T09:36:05;1.99;55.89
65637;DHT22;52327;42.622;23.316;2024-01-30T09:38:30;2.09;56.29
65637;DHT22;52327;42.622;23.316;2024-01-30T09:41:03;1.80;55.61
65637;DHT22;52327;42.622;23.316;2024-01-30T09:43:32;1.58;56.04
65637;DHT22;52327;42.622;23.316;2024-01-30T09:46:02;1.61;55.47
65637;DHT22;52327;42.622;23.316;2024-01-30T09:48:30;1.43;54.91
65637;DHT22;52327;42.622;23.316;2024-01-30T09:50:58;1.35;55.07
65637;DHT22;52327;42.622;23.316;2024-01-30T09:53:23;1.32;54.90
65637;DHT22;52327;42.622;23.316;2024-01-30T09:55:50;1.44;56.98
65637;DHT22;52327;42.622;23.316;2024-01-30T09:58:18;1.66;55.73
65637;DHT22;52327;42.622;23.316;2024-01-30T10:00:44;1.82;56.07
65637;DHT22;52327;42.622;23.316;2024-01-30T10:03:13;1.91;54.38
65637;DHT22;52327;42.622;23.316;2024-01-30T10:05:40;1.98;54.80
65637;DHT22;52327;42.622;23.316;2024-01-30T10:08:15;2.14;55.66
65637;DHT22;52327;42.622;23.316;2024-01-30T10:10:46;1.93;54.43
65637;DHT22;52327;42.622;23.316;2024-01-30T10:13:12;1.88;55.22
65637;DHT22;52327;42.622;23.316;2024-01-30T10:15:38;1.68;54.57
65637;DHT22;52327;42.622;23.316;2024-01-30T10:18:04;1.68;54.84
65637;DHT22;52327;42.622;23.316;2024-01-30T10:20:37;1.78;56.71
65637;DHT22;52327;42.622;23.316;2024-01-30T10:23:06;1.66;56.38
65637;DHT22;52327;42.622;23.316;2024-01-30T10:25:38;1.84;57.27
65637;DHT22;52327;42.622;23.316;2024-01-30T10:28:03;1.77;55.81
65637;DHT22;52327;42.622;23.316;2024-01-30T10:30:29;1.46;53.52
65637;DHT22;52327;42.622;23.316;2024-01-30T10:32:54;1.63;55.34
65637;DHT22;52327;42.622;23.316;2024-01-30T10:35:20;1.81;55.30
65637;DHT22;52327;42.622;23.316;2024-01-30T10:37:49;1.91;56.69
65637;DHT22;52327;42.622;23.316;2024-01-30T10:40:19;2.04;55.85
65637;DHT22;52327;42.622;23.316;2024-01-30T10:42:47;1.71;55.66
65637;DHT22;52327;42.622;23.316;2024-01-30T10:45:14;1.73;57.40
65637;DHT22;52327;42.622;23.316;2024-01-30T10:47:52;1.85;55.97
65637;DHT22;52327;42.622;23.316;2024-01-30T10:50:19;2.05;55.13
65637;DHT22;52327;42.622;23.316;2024-01-30T10:52:45;2.09;56.11
65637;DHT22;52327;42.622;23.316;2024-01-30T10:55:38;1.70;55.61
65637;DHT22;52327;42.622;23.316;2024-01-30T10:58:07;1.94;55.94
65637;DHT22;52327;42.622;23.316;2024-01-30T11:00:33;2.15;56.31
65637;DHT22;52327;42.622;23.316;2024-01-30T11:02:59;2.25;55.54
65637;DHT22;52327;42.622;23.316;2024-01-30T11:05:27;2.35;54.89
65637;DHT22;52327;42.622;23.316;2024-01-30T11:07:53;2.53;53.67
65637;DHT22;52327;42.622;23.316;2024-01-30T11:10:18;2.38;54.70
65637;DHT22;52327;42.622;23.316;2024-01-30T11:12:46;2.43;54.88
65637;DHT22;52327;42.622;23.316;2024-01-30T11:15:17;2.48;54.77
65637;DHT22;52327;42.622;23.316;2024-01-30T11:17:51;2.60;54.52
65637;DHT22;52327;42.622;23.316;2024-01-30T11:20:25;2.67;54.11
65637;DHT22;52327;42.622;23.316;2024-01-30T11:22:53;2.72;53.74
65637;DHT22;52327;42.622;23.316;2024-01-30T11:25:23;2.76;53.67
65637;DHT22;52327;42.622;23.316;2024-01-30T11:27:53;2.80;55.35
65637;DHT22;52327;42.622;23.316;2024-01-30T11:30:29;2.77;54.57
65637;DHT22;52327;42.622;23.316;2024-01-30T11:33:06;2.70;53.69
65637;DHT22;52327;42.622;23.316;2024-01-30T11:35:33;2.66;54.08
65637;DHT22;52327;42.622;23.316;2024-01-30T11:38:00;2.80;54.76
65637;DHT22;52327;42.622;23.316;2024-01-30T11:40:36;2.94;53.64
65637;DHT22;52327;42.622;23.316;2024-01-30T11:43:03;2.97;53.18
65637;DHT22;52327;42.622;23.316;2024-01-30T11:45:30;3.13;54.02
65637;DHT22;52327;42.622;23.316;2024-01-30T11:47:57;3.25;52.84
65637;DHT22;52327;42.622;23.316;2024-01-30T11:50:23;2.96;53.63
65637;DHT22;52327;42.622;23.316;2024-01-30T11:52:48;3.00;53.48
65637;DHT22;52327;42.622;23.316;2024-01-30T11:55:23;3.10;53.56
65637;DHT22;52327;42.622;23.316;2024-01-30T11:57:48;3.08;53.50
65637;DHT22;52327;42.622;23.316;2024-01-30T12:00:15;3.24;52.22
65637;DHT22;52327;42.622;23.316;2024-01-30T12:02:54;3.34;52.33
65637;DHT22;52327;42.622;23.316;2024-01-30T12:05:23;3.17;53.73
65637;DHT22;52327;42.622;23.316;2024-01-30T12:07:49;2.94;53.05
65637;DHT22;52327;42.622;23.316;2024-01-30T12:10:14;2.99;53.01
65637;DHT22;52327;42.622;23.316;2024-01-30T12:12:46;2.97;53.10
65637;DHT22;52327;42.622;23.316;2024-01-30T12:15:13;2.96;53.39
65637;DHT22;52327;42.622;23.316;2024-01-30T12:17:44;2.86;55.19
65637;DHT22;52327;42.622;23.316;2024-01-30T12:20:17;2.46;54.77
65637;DHT22;52327;42.622;23.316;2024-01-30T12:22:49;2.49;55.10
65637;DHT22;52327;42.622;23.316;2024-01-30T12:25:22;2.67;55.39
65637;DHT22;52327;42.622;23.316;2024-01-30T12:27:49;2.76;54.60
65637;DHT22;52327;42.622;23.316;2024-01-30T12:30:17;2.56;55.21
65637;DHT22;52327;42.622;23.316;2024-01-30T12:32:46;2.54;55.77
65637;DHT22;52327;42.622;23.316;2024-01-30T12:35:18;2.59;55.88
65637;DHT22;52327;42.622;23.316;2024-01-30T12:37:47;2.60;56.65
65637;DHT22;52327;42.622;23.316;2024-01-30T12:40:17;2.56;56.00
65637;DHT22;52327;42.622;23.316;2024-01-30T12:42:46;2.53;56.05
65637;DHT22;52327;42.622;23.316;2024-01-30T12:45:14;2.45;56.86
65637;DHT22;52327;42.622;23.316;2024-01-30T12:47:42;2.49;57.44
65637;DHT22;52327;42.622;23.316;2024-01-30T12:50:10;2.52;57.96
65637;DHT22;52327;42.622;23.316;2024-01-30T12:52:43;2.53;55.75
65637;DHT22;52327;42.622;23.316;2024-01-30T12:55:12;2.59;55.81
65637;DHT22;52327;42.622;23.316;2024-01-30T12:57:41;2.59;58.45
65637;DHT22;52327;42.622;23.316;2024-01-30T13:00:10;2.63;54.24
65637;DHT22;52327;42.622;23.316;2024-01-30T13:02:36;2.59;56.74
65637;DHT22;52327;42.622;23.316;2024-01-30T13:05:09;2.59;57.59
65637;DHT22;52327;42.622;23.316;2024-01-30T13:07:42;2.48;56.52
65637;DHT22;52327;42.622;23.316;2024-01-30T13:10:24;2.48;57.20
65637;DHT22;52327;42.622;23.316;2024-01-30T13:12:50;2.49;56.97
65637;DHT22;52327;42.622;23.316;2024-01-30T13:15:15;2.59;55.83
65637;DHT22;52327;42.622;23.316;2024-01-30T13:17:44;2.53;57.11
65637;DHT22;52327;42.622;23.316;2024-01-30T13:20:13;2.53;56.56
65637;DHT22;52327;42.622;23.316;2024-01-30T13:22:43;2.48;58.45
65637;DHT22;52327;42.622;23.316;2024-01-30T13:25:13;2.43;58.75
65637;DHT22;52327;42.622;23.316;2024-01-30T13:27:48;2.40;57.85
65637;DHT22;52327;42.622;23.316;2024-01-30T13:30:13;2.43;57.21
65637;DHT22;52327;42.622;23.316;2024-01-30T13:32:42;2.36;59.12
65637;DHT22;52327;42.622;23.316;2024-01-30T13:35:10;2.19;57.39
65637;DHT22;52327;42.622;23.316;2024-01-30T13:37:35;2.28;57.82
65637;DHT22;52327;42.622;23.316;2024-01-30T13:40:04;2.15;58.23
65637;DHT22;52327;42.622;23.316;2024-01-30T13:42:33;2.17;57.93
65637;DHT22;52327;42.622;23.316;2024-01-30T13:45:33;2.11;57.15
65637;DHT22;52327;42.622;23.316;2024-01-30T13:48:04;2.08;57.02
65637;DHT22;52327;42.622;23.316;2024-01-30T13:50:36;2.05;57.83
65637;DHT22;52327;42.622;23.316;2024-01-30T13:53:02;2.01;58.43
65637;DHT22;52327;42.622;23.316;2024-01-30T13:55:31;1.98;58.72
65637;DHT22;52327;42.622;23.316;2024-01-30T13:57:56;1.99;59.72
65637;DHT22;52327;42.622;23.316;2024-01-30T14:00:22;1.93;59.52
65637;DHT22;52327;42.622;23.316;2024-01-30T14:02:54;1.97;59.19
65637;DHT22;52327;42.622;23.316;2024-01-30T14:05:24;1.94;59.21
65637;DHT22;52327;42.622;23.316;2024-01-30T14:07:51;1.90;58.39
65637;DHT22;52327;42.622;23.316;2024-01-30T14:10:16;1.80;59.36
65637;DHT22;52327;42.622;23.316;2024-01-30T14:12:43;1.71;60.50
65637;DHT22;52327;42.622;23.316;2024-01-30T14:15:09;1.68;60.23
65637;DHT22;52327;42.622;23.316;2024-01-30T14:17:43;1.60;60.67
65637;DHT22;52327;42.622;23.316;2024-01-30T14:20:10;1.56;61.26
65637;DHT22;52327;42.622;23.316;2024-01-30T14:22:36;1.51;62.33
65637;DHT22;52327;42.622;23.316;2024-01-30T14:25:01;1.50;61.07
65637;DHT22;52327;42.622;23.316;2024-01-30T14:27:29;1.49;61.81
65637;DHT22;52327;42.622;23.316;2024-01-30T14:29:56;1.42;60.52
65637;DHT22;52327;42.622;23.316;2024-01-30T14:32:24;1.29;60.82
65637;DHT22;52327;42.622;23.316;2024-01-30T14:34:52;1.20;60.53
65637;DHT22;52327;42.622;23.316;2024-01-30T14:37:19;1.20;61.68
65637;DHT22;52327;42.622;23.316;2024-01-30T14:39:45;1.26;62.06
65637;DHT22;52327;42.622;23.316;2024-01-30T14:42:10;1.25;63.48
65637;DHT22;52327;42.622;23.316;2024-01-30T14:44:36;1.23;63.20
65637;DHT22;52327;42.622;23.316;2024-01-30T14:47:04;1.22;63.84
65637;DHT22;52327;42.622;23.316;2024-01-30T14:49:30;1.23;64.15
65637;DHT22;52327;42.622;23.316;2024-01-30T14:51:58;1.22;64.41
65637;DHT22;52327;42.622;23.316;2024-01-30T14:54:25;1.17;64.40
65637;DHT22;52327;42.622;23.316;2024-01-30T14:56:51;1.03;62.54
65637;DHT22;52327;42.622;23.316;2024-01-30T14:59:16;1.02;64.69
65637;DHT22;52327;42.622;23.316;2024-01-30T15:01:42;1.06;63.13
65637;DHT22;52327;42.622;23.316;2024-01-30T15:04:08;1.08;62.73
65637;DHT22;52327;42.622;23.316;2024-01-30T15:06:33;0.96;64.64
65637;DHT22;52327;42.622;23.316;2024-01-30T15:08:59;0.84;64.83
65637;DHT22;52327;42.622;23.316;2024-01-30T15:11:24;0.69;64.15
65637;DHT22;52327;42.622;23.316;2024-01-30T15:13:50;0.51;63.47
65637;DHT22;52327;42.622;23.316;2024-01-30T15:16:15;0.45;64.79
65637;DHT22;52327;42.622;23.316;2024-01-30T15:18:40;0.45;65.03
65637;DHT22;52327;42.622;23.316;2024-01-30T15:21:07;0.50;63.63
65637;DHT22;52327;42.622;23.316;2024-01-30T15:23:32;0.41;64.59
65637;DHT22;52327;42.622;23.316;2024-01-30T15:25:58;0.34;66.22
65637;DHT22;52327;42.622;23.316;2024-01-30T15:28:44;0.37;66.17